sensor_id;sensor_type;location;lat;lon;timestamp;P1;durP1;ratioP1;P2;durP2;ratioP2
38397;SDS011;24179;52.094;4.408;2023-12-20T00:02:22;289.70;;;73.70;;
38397;SDS011;24179;52.094;4.408;2023-12-20T00:05:23;291.43;;;73.67;;
38397;SDS011;24179;52.094;4.408;2023-12-20T00:08:23;290.27;;;73.47;;
38397;SDS011;24179;52.094;4.408;2023-12-20T00:11:24;292.13;;;73.43;;
38397;SDS011;24179;52.094;4.408;2023-12-20T00:14:24;296.63;;;75.07;;
38397;SDS011;24179;52.094;4.408;2023-12-20T00:17:25;294.03;;;73.97;;
38397;SDS011;24179;52.094;4.408;2023-12-20T00:20:26;296.90;;;74.30;;
38397;SDS011;24179;52.094;4.408;2023-12-20T00:23:27;299.42;;;75.57;;
38397;SDS011;24179;52.094;4.408;2023-12-20T00:26:27;300.47;;;75.07;;
38397;SDS011;24179;52.094;4.408;2023-12-20T00:29:28;298.70;;;75.13;;
38397;SDS011;24179;52.094;4.408;2023-12-20T00:32:28;301.23;;;75.63;;
38397;SDS011;24179;52.094;4.408;2023-12-20T00:35:29;302.40;;;75.77;;
38397;SDS011;24179;52.094;4.408;2023-12-20T00:38:29;305.30;;;76.03;;
38397;SDS011;24179;52.094;4.408;2023-12-20T00:41:30;311.73;;;94.53;;
38397;SDS011;24179;52.094;4.408;2023-12-20T00:44:31;322.37;;;107.33;;
38397;SDS011;24179;52.094;4.408;2023-12-20T00:47:31;321.33;;;109.13;;
38397;SDS011;24179;52.094;4.408;2023-12-20T00:50:32;322.43;;;107.63;;
38397;SDS011;24179;52.094;4.408;2023-12-20T00:53:32;109.80;;;103.23;;
38397;SDS011;24179;52.094;4.408;2023-12-20T00:56:33;110.60;;;103.43;;
38397;SDS011;24179;52.094;4.408;2023-12-20T00:59:34;111.57;;;104.22;;
38397;SDS011;24179;52.094;4.408;2023-12-20T01:02:35;117.47;;;109.60;;
38397;SDS011;24179;52.094;4.408;2023-12-20T01:05:35;118.23;;;110.50;;
38397;SDS011;24179;52.094;4.408;2023-12-20T01:08:36;117.03;;;109.00;;
38397;SDS011;24179;52.094;4.408;2023-12-20T01:11:37;117.95;;;110.07;;
38397;SDS011;24179;52.094;4.408;2023-12-20T01:14:38;118.00;;;110.13;;
38397;SDS011;24179;52.094;4.408;2023-12-20T01:17:39;123.03;;;114.47;;
38397;SDS011;24179;52.094;4.408;2023-12-20T01:20:40;121.23;;;113.03;;
38397;SDS011;24179;52.094;4.408;2023-12-20T01:23:40;119.15;;;110.97;;
38397;SDS011;24179;52.094;4.408;2023-12-20T01:26:41;121.53;;;113.30;;
38397;SDS011;24179;52.094;4.408;2023-12-20T01:29:42;122.17;;;114.10;;
38397;SDS011;24179;52.094;4.408;2023-12-20T01:32:42;121.63;;;113.50;;
38397;SDS011;24179;52.094;4.408;2023-12-20T01:35:43;117.30;;;109.63;;
38397;SDS011;24179;52.094;4.408;2023-12-20T01:38:44;119.73;;;111.73;;
38397;SDS011;24179;52.094;4.408;2023-12-20T01:41:44;125.03;;;116.40;;
38397;SDS011;24179;52.094;4.408;2023-12-20T01:44:45;126.90;;;118.35;;
38397;SDS011;24179;52.094;4.408;2023-12-20T01:47:47;124.35;;;116.13;;
38397;SDS011;24179;52.094;4.408;2023-12-20T01:50:48;124.63;;;116.27;;
38397;SDS011;24179;52.094;4.408;2023-12-20T01:53:49;120.83;;;112.90;;
38397;SDS011;24179;52.094;4.408;2023-12-20T01:56:49;126.20;;;117.50;;
38397;SDS011;24179;52.094;4.408;2023-12-20T01:59:51;127.47;;;118.80;;
38397;SDS011;24179;52.094;4.408;2023-12-20T02:02:51;126.20;;;117.87;;
38397;SDS011;24179;52.094;4.408;2023-12-20T02:05:53;128.73;;;119.80;;
38397;SDS011;24179;52.094;4.408;2023-12-20T02:08:55;125.97;;;117.43;;
38397;SDS011;24179;52.094;4.408;2023-12-20T02:11:55;128.07;;;119.40;;
38397;SDS011;24179;52.094;4.408;2023-12-20T02:14:56;127.70;;;119.18;;
38397;SDS011;24179;52.094;4.408;2023-12-20T02:17:57;127.60;;;118.93;;
38397;SDS011;24179;52.094;4.408;2023-12-20T02:20:57;123.17;;;115.20;;
38397;SDS011;24179;52.094;4.408;2023-12-20T02:23:58;126.13;;;117.70;;
38397;SDS011;24179;52.094;4.408;2023-12-20T02:26:58;124.13;;;116.07;;
38397;SDS011;24179;52.094;4.408;2023-12-20T02:29:59;125.70;;;117.53;;
38397;SDS011;24179;52.094;4.408;2023-12-20T02:33:00;124.27;;;116.23;;
38397;SDS011;24179;52.094;4.408;2023-12-20T02:39:02;127.38;;;118.82;;
38397;SDS011;24179;52.094;4.408;2023-12-20T02:42:02;130.33;;;121.67;;
38397;SDS011;24179;52.094;4.408;2023-12-20T02:45:03;129.57;;;120.83;;
38397;SDS011;24179;52.094;4.408;2023-12-20T02:48:04;134.02;;;124.97;;
38397;SDS011;24179;52.094;4.408;2023-12-20T02:51:05;125.80;;;117.77;;
38397;SDS011;24179;52.094;4.408;2023-12-20T02:54:05;128.17;;;119.73;;
38397;SDS011;24179;52.094;4.408;2023-12-20T02:57:06;125.90;;;117.80;;
38397;SDS011;24179;52.094;4.408;2023-12-20T03:00:08;126.85;;;118.57;;
38397;SDS011;24179;52.094;4.408;2023-12-20T03:03:10;129.05;;;120.63;;
38397;SDS011;24179;52.094;4.408;2023-12-20T03:06:11;133.23;;;124.20;;
38397;SDS011;24179;52.094;4.408;2023-12-20T03:09:11;129.97;;;121.37;;
38397;SDS011;24179;52.094;4.408;2023-12-20T03:12:12;132.07;;;123.27;;
38397;SDS011;24179;52.094;4.408;2023-12-20T03:15:12;131.67;;;123.17;;
38397;SDS011;24179;52.094;4.408;2023-12-20T03:18:13;133.53;;;124.63;;
38397;SDS011;24179;52.094;4.408;2023-12-20T03:21:13;132.30;;;123.53;;
38397;SDS011;24179;52.094;4.408;2023-12-20T03:24:14;129.43;;;121.03;;
38397;SDS011;24179;52.094;4.408;2023-12-20T03:27:15;126.77;;;118.60;;
38397;SDS011;24179;52.094;4.408;2023-12-20T03:30:15;130.27;;;121.97;;
38397;SDS011;24179;52.094;4.408;2023-12-20T03:33:16;131.93;;;123.23;;
38397;SDS011;24179;52.094;4.408;2023-12-20T03:36:16;130.17;;;121.67;;
38397;SDS011;24179;52.094;4.408;2023-12-20T03:39:17;132.67;;;123.77;;
38397;SDS011;24179;52.094;4.408;2023-12-20T03:42:17;136.10;;;127.10;;
38397;SDS011;24179;52.094;4.408;2023-12-20T03:45:18;133.83;;;125.00;;
38397;SDS011;24179;52.094;4.408;2023-12-20T03:48:19;131.70;;;123.17;;
38397;SDS011;24179;52.094;4.408;2023-12-20T03:51:19;130.10;;;121.60;;
38397;SDS011;24179;52.094;4.408;2023-12-20T03:54:20;131.90;;;123.20;;
38397;SDS011;24179;52.094;4.408;2023-12-20T03:57:20;135.73;;;126.90;;
38397;SDS011;24179;52.094;4.408;2023-12-20T04:00:21;135.30;;;126.43;;
38397;SDS011;24179;52.094;4.408;2023-12-20T04:03:21;130.53;;;122.10;;
38397;SDS011;24179;52.094;4.408;2023-12-20T04:06:22;132.57;;;124.03;;
38397;SDS011;24179;52.094;4.408;2023-12-20T04:09:22;134.77;;;125.80;;
38397;SDS011;24179;52.094;4.408;2023-12-20T04:12:23;134.23;;;125.37;;
38397;SDS011;24179;52.094;4.408;2023-12-20T04:15:24;136.10;;;127.37;;
38397;SDS011;24179;52.094;4.408;2023-12-20T04:18:24;132.90;;;123.97;;
38397;SDS011;24179;52.094;4.408;2023-12-20T04:21:25;136.63;;;127.87;;
38397;SDS011;24179;52.094;4.408;2023-12-20T04:24:25;131.13;;;123.07;;
38397;SDS011;24179;52.094;4.408;2023-12-20T04:27:26;132.63;;;124.20;;
38397;SDS011;24179;52.094;4.408;2023-12-20T04:30:26;137.33;;;128.37;;
38397;SDS011;24179;52.094;4.408;2023-12-20T04:33:27;134.33;;;125.63;;
38397;SDS011;24179;52.094;4.408;2023-12-20T04:36:27;136.43;;;127.80;;
38397;SDS011;24179;52.094;4.408;2023-12-20T04:39:30;137.75;;;128.68;;
38397;SDS011;24179;52.094;4.408;2023-12-20T04:42:30;134.80;;;126.33;;
38397;SDS011;24179;52.094;4.408;2023-12-20T04:45:31;136.33;;;127.53;;
38397;SDS011;24179;52.094;4.408;2023-12-20T04:48:31;132.27;;;123.73;;
38397;SDS011;24179;52.094;4.408;2023-12-20T04:51:35;139.20;;;130.40;;
38397;SDS011;24179;52.094;4.408;2023-12-20T04:54:35;138.15;;;129.38;;
38397;SDS011;24179;52.094;4.408;2023-12-20T04:57:36;134.63;;;126.18;;
38397;SDS011;24179;52.094;4.408;2023-12-20T05:00:37;134.53;;;125.90;;
38397;SDS011;24179;52.094;4.408;2023-12-20T05:03:38;138.77;;;129.97;;
38397;SDS011;24179;52.094;4.408;2023-12-20T05:06:38;134.23;;;125.97;;
38397;SDS011;24179;52.094;4.408;2023-12-20T05:09:39;142.17;;;132.87;;
38397;SDS011;24179;52.094;4.408;2023-12-20T05:12:39;135.13;;;126.73;;
38397;SDS011;24179;52.094;4.408;2023-12-20T05:15:40;135.47;;;126.93;;
38397;SDS011;24179;52.094;4.408;2023-12-20T05:18:40;134.80;;;126.47;;
38397;SDS011;24179;52.094;4.408;2023-12-20T05:21:41;139.53;;;130.63;;
38397;SDS011;24179;52.094;4.408;2023-12-20T05:24:41;137.80;;;129.23;;
38397;SDS011;24179;52.094;4.408;2023-12-20T05:27:42;136.73;;;127.97;;
38397;SDS011;24179;52.094;4.408;2023-12-20T05:30:43;138.77;;;130.03;;
38397;SDS011;24179;52.094;4.408;2023-12-20T05:33:43;141.60;;;132.67;;
38397;SDS011;24179;52.094;4.408;2023-12-20T05:36:44;138.03;;;129.30;;
38397;SDS011;24179;52.094;4.408;2023-12-20T05:39:44;136.83;;;128.47;;
38397;SDS011;24179;52.094;4.408;2023-12-20T05:42:45;140.03;;;131.13;;
38397;SDS011;24179;52.094;4.408;2023-12-20T05:45:45;139.47;;;130.57;;
38397;SDS011;24179;52.094;4.408;2023-12-20T05:48:46;142.90;;;133.53;;
38397;SDS011;24179;52.094;4.408;2023-12-20T05:51:46;142.03;;;132.67;;
38397;SDS011;24179;52.094;4.408;2023-12-20T05:54:47;136.77;;;128.37;;
38397;SDS011;24179;52.094;4.408;2023-12-20T05:57:48;146.80;;;136.67;;
38397;SDS011;24179;52.094;4.408;2023-12-20T06:00:48;140.83;;;131.77;;
38397;SDS011;24179;52.094;4.408;2023-12-20T06:03:49;137.60;;;129.13;;
38397;SDS011;24179;52.094;4.408;2023-12-20T06:06:50;140.97;;;131.77;;
38397;SDS011;24179;52.094;4.408;2023-12-20T06:09:51;142.00;;;132.77;;
38397;SDS011;24179;52.094;4.408;2023-12-20T06:12:51;144.57;;;135.53;;
38397;SDS011;24179;52.094;4.408;2023-12-20T06:15:53;141.97;;;133.07;;
38397;SDS011;24179;52.094;4.408;2023-12-20T06:18:55;138.18;;;129.68;;
38397;SDS011;24179;52.094;4.408;2023-12-20T06:21:55;146.50;;;137.37;;
38397;SDS011;24179;52.094;4.408;2023-12-20T06:24:56;141.67;;;132.77;;
38397;SDS011;24179;52.094;4.408;2023-12-20T06:27:56;141.67;;;133.00;;
38397;SDS011;24179;52.094;4.408;2023-12-20T06:30:57;137.77;;;129.33;;
38397;SDS011;24179;52.094;4.408;2023-12-20T06:33:57;134.87;;;126.67;;
38397;SDS011;24179;52.094;4.408;2023-12-20T06:36:59;138.40;;;130.00;;
38397;SDS011;24179;52.094;4.408;2023-12-20T06:40:00;145.20;;;135.97;;
38397;SDS011;24179;52.094;4.408;2023-12-20T06:43:01;138.20;;;129.93;;
38397;SDS011;24179;52.094;4.408;2023-12-20T06:46:01;140.10;;;131.50;;
38397;SDS011;24179;52.094;4.408;2023-12-20T06:49:02;140.97;;;132.50;;
38397;SDS011;24179;52.094;4.408;2023-12-20T06:52:02;148.43;;;139.00;;
38397;SDS011;24179;52.094;4.408;2023-12-20T06:55:03;143.20;;;134.30;;
38397;SDS011;24179;52.094;4.408;2023-12-20T06:58:04;141.07;;;132.38;;
38397;SDS011;24179;52.094;4.408;2023-12-20T07:01:05;143.63;;;134.80;;
38397;SDS011;24179;52.094;4.408;2023-12-20T07:04:05;144.37;;;134.97;;
38397;SDS011;24179;52.094;4.408;2023-12-20T07:07:06;142.80;;;134.00;;
38397;SDS011;24179;52.094;4.408;2023-12-20T07:10:07;145.13;;;135.82;;
38397;SDS011;24179;52.094;4.408;2023-12-20T07:13:08;142.45;;;133.77;;
38397;SDS011;24179;52.094;4.408;2023-12-20T07:16:08;140.97;;;132.27;;
38397;SDS011;24179;52.094;4.408;2023-12-20T07:19:09;137.83;;;129.20;;
38397;SDS011;24179;52.094;4.408;2023-12-20T07:22:10;142.77;;;133.67;;
38397;SDS011;24179;52.094;4.408;2023-12-20T07:25:10;153.07;;;143.33;;
38397;SDS011;24179;52.094;4.408;2023-12-20T07:28:11;142.83;;;134.23;;
38397;SDS011;24179;52.094;4.408;2023-12-20T07:31:11;148.63;;;139.17;;
38397;SDS011;24179;52.094;4.408;2023-12-20T07:34:12;143.87;;;135.23;;
38397;SDS011;24179;52.094;4.408;2023-12-20T07:37:12;150.90;;;141.43;;
38397;SDS011;24179;52.094;4.408;2023-12-20T07:40:13;144.50;;;135.53;;
38397;SDS011;24179;52.094;4.408;2023-12-20T07:43:14;144.43;;;135.43;;
38397;SDS011;24179;52.094;4.408;2023-12-20T07:46:14;146.90;;;137.93;;
38397;SDS011;24179;52.094;4.408;2023-12-20T07:49:15;146.67;;;137.60;;
38397;SDS011;24179;52.094;4.408;2023-12-20T07:52:15;145.20;;;136.30;;
38397;SDS011;24179;52.094;4.408;2023-12-20T07:55:16;147.87;;;138.93;;
38397;SDS011;24179;52.094;4.408;2023-12-20T07:58:16;142.77;;;134.20;;
38397;SDS011;24179;52.094;4.408;2023-12-20T08:01:17;143.27;;;134.60;;
38397;SDS011;24179;52.094;4.408;2023-12-20T08:04:18;150.02;;;140.90;;
38397;SDS011;24179;52.094;4.408;2023-12-20T08:07:19;144.03;;;135.33;;
38397;SDS011;24179;52.094;4.408;2023-12-20T08:10:19;150.10;;;139.73;;
38397;SDS011;24179;52.094;4.408;2023-12-20T08:13:20;148.67;;;139.20;;
38397;SDS011;24179;52.094;4.408;2023-12-20T08:16:25;145.65;;;136.23;;
38397;SDS011;24179;52.094;4.408;2023-12-20T08:19:26;144.33;;;135.73;;
38397;SDS011;24179;52.094;4.408;2023-12-20T08:22:26;144.80;;;135.87;;
38397;SDS011;24179;52.094;4.408;2023-12-20T08:25:27;144.80;;;135.93;;
38397;SDS011;24179;52.094;4.408;2023-12-20T08:28:28;146.47;;;137.60;;
38397;SDS011;24179;52.094;4.408;2023-12-20T08:31:28;145.83;;;136.97;;
38397;SDS011;24179;52.094;4.408;2023-12-20T08:34:29;148.80;;;139.60;;
38397;SDS011;24179;52.094;4.408;2023-12-20T08:37:31;143.20;;;134.75;;
38397;SDS011;24179;52.094;4.408;2023-12-20T08:40:31;152.32;;;142.85;;
38397;SDS011;24179;52.094;4.408;2023-12-20T08:43:33;143.97;;;134.97;;
38397;SDS011;24179;52.094;4.408;2023-12-20T08:46:34;148.75;;;139.15;;
38397;SDS011;24179;52.094;4.408;2023-12-20T08:49:35;149.88;;;140.77;;
38397;SDS011;24179;52.094;4.408;2023-12-20T08:52:36;144.77;;;136.10;;
38397;SDS011;24179;52.094;4.408;2023-12-20T08:55:36;153.93;;;144.20;;
38397;SDS011;24179;52.094;4.408;2023-12-20T08:58:37;145.73;;;136.77;;
38397;SDS011;24179;52.094;4.408;2023-12-20T09:01:37;143.03;;;134.80;;
38397;SDS011;24179;52.094;4.408;2023-12-20T09:04:38;154.53;;;144.63;;
38397;SDS011;24179;52.094;4.408;2023-12-20T09:07:39;147.30;;;138.70;;
38397;SDS011;24179;52.094;4.408;2023-12-20T09:10:39;146.77;;;137.93;;
38397;SDS011;24179;52.094;4.408;2023-12-20T09:13:40;149.17;;;139.40;;
38397;SDS011;24179;52.094;4.408;2023-12-20T09:16:40;150.50;;;141.33;;
38397;SDS011;24179;52.094;4.408;2023-12-20T09:19:41;148.77;;;139.03;;
38397;SDS011;24179;52.094;4.408;2023-12-20T09:22:43;142.52;;;133.75;;
38397;SDS011;24179;52.094;4.408;2023-12-20T09:25:44;155.57;;;145.70;;
38397;SDS011;24179;52.094;4.408;2023-12-20T09:28:44;146.07;;;136.63;;
38397;SDS011;24179;52.094;4.408;2023-12-20T09:31:45;151.23;;;141.80;;
38397;SDS011;24179;52.094;4.408;2023-12-20T09:34:47;151.40;;;141.60;;
38397;SDS011;24179;52.094;4.408;2023-12-20T09:37:47;145.80;;;137.30;;
38397;SDS011;24179;52.094;4.408;2023-12-20T09:40:48;154.33;;;144.67;;
38397;SDS011;24179;52.094;4.408;2023-12-20T09:43:49;150.80;;;141.37;;
38397;SDS011;24179;52.094;4.408;2023-12-20T09:46:55;150.40;;;141.35;;
38397;SDS011;24179;52.094;4.408;2023-12-20T09:49:56;155.07;;;144.98;;
38397;SDS011;24179;52.094;4.408;2023-12-20T09:52:57;148.10;;;139.47;;
38397;SDS011;24179;52.094;4.408;2023-12-20T09:55:59;150.93;;;141.73;;
38397;SDS011;24179;52.094;4.408;2023-12-20T09:59:00;152.82;;;143.15;;
38397;SDS011;24179;52.094;4.408;2023-12-20T10:02:01;151.50;;;141.53;;
38397;SDS011;24179;52.094;4.408;2023-12-20T10:05:03;149.65;;;140.90;;
38397;SDS011;24179;52.094;4.408;2023-12-20T10:08:08;151.90;;;142.38;;
38397;SDS011;24179;52.094;4.408;2023-12-20T10:11:09;150.10;;;140.73;;
38397;SDS011;24179;52.094;4.408;2023-12-20T10:14:10;156.60;;;146.93;;
38397;SDS011;24179;52.094;4.408;2023-12-20T10:17:11;152.35;;;143.38;;
38397;SDS011;24179;52.094;4.408;2023-12-20T10:20:11;143.33;;;135.10;;
38397;SDS011;24179;52.094;4.408;2023-12-20T10:23:12;151.77;;;142.23;;
38397;SDS011;24179;52.094;4.408;2023-12-20T10:26:20;157.45;;;146.73;;
38397;SDS011;24179;52.094;4.408;2023-12-20T10:29:21;158.30;;;148.65;;
38397;SDS011;24179;52.094;4.408;2023-12-20T10:32:27;153.07;;;143.77;;
38397;SDS011;24179;52.094;4.408;2023-12-20T10:35:27;150.75;;;141.32;;
38397;SDS011;24179;52.094;4.408;2023-12-20T10:38:28;148.30;;;139.40;;
38397;SDS011;24179;52.094;4.408;2023-12-20T10:41:31;152.63;;;143.50;;
38397;SDS011;24179;52.094;4.408;2023-12-20T10:44:32;151.68;;;142.52;;
38397;SDS011;24179;52.094;4.408;2023-12-20T10:47:33;155.63;;;145.60;;
38397;SDS011;24179;52.094;4.408;2023-12-20T10:50:36;152.68;;;143.25;;
38397;SDS011;24179;52.094;4.408;2023-12-20T10:53:38;157.52;;;147.32;;
38397;SDS011;24179;52.094;4.408;2023-12-20T10:56:40;151.82;;;142.95;;
38397;SDS011;24179;52.094;4.408;2023-12-20T10:59:41;149.63;;;140.75;;
38397;SDS011;24179;52.094;4.408;2023-12-20T11:02:45;280.27;;;79.07;;
38397;SDS011;24179;52.094;4.408;2023-12-20T11:05:59;280.58;;;79.40;;
38397;SDS011;24179;52.094;4.408;2023-12-20T11:09:24;282.63;;;78.10;;
38397;SDS011;24179;52.094;4.408;2023-12-20T11:12:32;282.60;;;76.40;;
38397;SDS011;24179;52.094;4.408;2023-12-20T11:15:41;285.52;;;76.30;;
38397;SDS011;24179;52.094;4.408;2023-12-20T11:18:44;290.48;;;79.28;;
38397;SDS011;24179;52.094;4.408;2023-12-20T11:21:45;291.48;;;78.82;;
38397;SDS011;24179;52.094;4.408;2023-12-20T11:24:47;289.48;;;78.18;;
38397;SDS011;24179;52.094;4.408;2023-12-20T11:28:07;294.77;;;79.80;;
38397;SDS011;24179;52.094;4.408;2023-12-20T11:31:12;292.35;;;79.22;;
38397;SDS011;24179;52.094;4.408;2023-12-20T11:34:15;295.00;;;80.30;;
38397;SDS011;24179;52.094;4.408;2023-12-20T11:37:17;288.98;;;77.68;;
38397;SDS011;24179;52.094;4.408;2023-12-20T11:40:20;301.77;;;81.35;;
38397;SDS011;24179;52.094;4.408;2023-12-20T11:43:29;294.67;;;80.30;;
38397;SDS011;24179;52.094;4.408;2023-12-20T11:46:31;294.10;;;78.43;;
38397;SDS011;24179;52.094;4.408;2023-12-20T11:49:33;300.80;;;80.70;;
38397;SDS011;24179;52.094;4.408;2023-12-20T11:52:33;300.07;;;79.30;;
38397;SDS011;24179;52.094;4.408;2023-12-20T11:55:35;293.33;;;77.95;;
38397;SDS011;24179;52.094;4.408;2023-12-20T11:58:36;308.65;;;82.57;;
38397;SDS011;24179;52.094;4.408;2023-12-20T12:01:37;310.85;;;81.95;;
38397;SDS011;24179;52.094;4.408;2023-12-20T12:04:38;302.50;;;80.07;;
38397;SDS011;24179;52.094;4.408;2023-12-20T12:07:41;306.95;;;82.35;;
38397;SDS011;24179;52.094;4.408;2023-12-20T12:10:41;309.17;;;82.93;;
38397;SDS011;24179;52.094;4.408;2023-12-20T12:13:42;307.33;;;79.90;;
38397;SDS011;24179;52.094;4.408;2023-12-20T12:16:43;306.33;;;80.33;;
38397;SDS011;24179;52.094;4.408;2023-12-20T12:19:43;305.03;;;79.83;;
38397;SDS011;24179;52.094;4.408;2023-12-20T12:22:44;310.27;;;82.93;;
38397;SDS011;24179;52.094;4.408;2023-12-20T12:25:45;318.13;;;84.68;;
38397;SDS011;24179;52.094;4.408;2023-12-20T12:28:46;312.83;;;81.30;;
38397;SDS011;24179;52.094;4.408;2023-12-20T12:31:48;315.63;;;83.57;;
38397;SDS011;24179;52.094;4.408;2023-12-20T12:34:49;324.23;;;85.93;;
38397;SDS011;24179;52.094;4.408;2023-12-20T12:37:50;322.38;;;84.50;;
38397;SDS011;24179;52.094;4.408;2023-12-20T12:40:51;317.85;;;83.07;;
38397;SDS011;24179;52.094;4.408;2023-12-20T12:43:53;331.35;;;93.10;;
38397;SDS011;24179;52.094;4.408;2023-12-20T12:46:53;331.23;;;110.40;;
38397;SDS011;24179;52.094;4.408;2023-12-20T12:49:54;344.23;;;117.80;;
38397;SDS011;24179;52.094;4.408;2023-12-20T12:52:55;113.47;;;106.27;;
38397;SDS011;24179;52.094;4.408;2023-12-20T12:55:55;111.03;;;104.20;;
38397;SDS011;24179;52.094;4.408;2023-12-20T12:58:56;119.07;;;111.10;;
38397;SDS011;24179;52.094;4.408;2023-12-20T13:01:57;111.83;;;104.47;;
38397;SDS011;24179;52.094;4.408;2023-12-20T13:04:58;115.82;;;108.13;;
38397;SDS011;24179;52.094;4.408;2023-12-20T13:08:00;121.90;;;113.22;;
38397;SDS011;24179;52.094;4.408;2023-12-20T13:11:01;114.05;;;106.43;;
38397;SDS011;24179;52.094;4.408;2023-12-20T13:14:04;118.38;;;110.18;;
38397;SDS011;24179;52.094;4.408;2023-12-20T13:17:04;116.00;;;108.30;;
38397;SDS011;24179;52.094;4.408;2023-12-20T13:20:06;117.38;;;109.38;;
38397;SDS011;24179;52.094;4.408;2023-12-20T13:23:07;117.18;;;109.22;;
38397;SDS011;24179;52.094;4.408;2023-12-20T13:26:07;121.10;;;112.37;;
38397;SDS011;24179;52.094;4.408;2023-12-20T13:29:08;122.75;;;114.20;;
38397;SDS011;24179;52.094;4.408;2023-12-20T13:32:09;122.50;;;113.93;;
38397;SDS011;24179;52.094;4.408;2023-12-20T13:35:09;121.30;;;113.30;;
38397;SDS011;24179;52.094;4.408;2023-12-20T13:38:10;123.03;;;114.80;;
38397;SDS011;24179;52.094;4.408;2023-12-20T13:41:13;122.18;;;114.22;;
38397;SDS011;24179;52.094;4.408;2023-12-20T13:44:13;124.63;;;116.43;;
38397;SDS011;24179;52.094;4.408;2023-12-20T13:47:14;123.37;;;115.13;;
38397;SDS011;24179;52.094;4.408;2023-12-20T13:50:14;125.23;;;116.37;;
38397;SDS011;24179;52.094;4.408;2023-12-20T13:53:15;122.63;;;114.20;;
38397;SDS011;24179;52.094;4.408;2023-12-20T13:56:16;125.07;;;116.83;;
38397;SDS011;24179;52.094;4.408;2023-12-20T13:59:16;123.20;;;115.23;;
38397;SDS011;24179;52.094;4.408;2023-12-20T14:02:17;126.20;;;117.80;;
38397;SDS011;24179;52.094;4.408;2023-12-20T14:05:18;122.93;;;114.93;;
38397;SDS011;24179;52.094;4.408;2023-12-20T14:08:19;127.88;;;118.57;;
38397;SDS011;24179;52.094;4.408;2023-12-20T14:11:19;123.60;;;115.47;;
38397;SDS011;24179;52.094;4.408;2023-12-20T14:14:20;131.63;;;122.73;;
38397;SDS011;24179;52.094;4.408;2023-12-20T14:17:21;126.73;;;118.00;;
38397;SDS011;24179;52.094;4.408;2023-12-20T14:20:22;132.25;;;122.97;;
38397;SDS011;24179;52.094;4.408;2023-12-20T14:23:22;129.30;;;120.47;;
38397;SDS011;24179;52.094;4.408;2023-12-20T14:26:23;128.20;;;119.30;;
38397;SDS011;24179;52.094;4.408;2023-12-20T14:29:23;128.40;;;119.53;;
38397;SDS011;24179;52.094;4.408;2023-12-20T14:32:24;128.20;;;119.53;;
38397;SDS011;24179;52.094;4.408;2023-12-20T14:35:26;126.07;;;117.78;;
38397;SDS011;24179;52.094;4.408;2023-12-20T14:38:27;128.57;;;119.97;;
38397;SDS011;24179;52.094;4.408;2023-12-20T14:41:28;128.47;;;120.00;;
38397;SDS011;24179;52.094;4.408;2023-12-20T14:44:28;132.87;;;123.83;;
38397;SDS011;24179;52.094;4.408;2023-12-20T14:47:32;130.18;;;121.35;;
38397;SDS011;24179;52.094;4.408;2023-12-20T14:50:32;127.60;;;119.20;;
38397;SDS011;24179;52.094;4.408;2023-12-20T14:53:33;125.60;;;117.37;;
38397;SDS011;24179;52.094;4.408;2023-12-20T14:56:37;130.30;;;121.43;;
38397;SDS011;24179;52.094;4.408;2023-12-20T14:59:37;130.43;;;121.57;;
38397;SDS011;24179;52.094;4.408;2023-12-20T15:02:38;128.03;;;119.40;;
38397;SDS011;24179;52.094;4.408;2023-12-20T15:05:38;130.40;;;121.97;;
38397;SDS011;24179;52.094;4.408;2023-12-20T15:08:40;130.15;;;121.70;;
38397;SDS011;24179;52.094;4.408;2023-12-20T15:11:41;130.00;;;121.43;;
38397;SDS011;24179;52.094;4.408;2023-12-20T15:14:42;130.37;;;121.97;;
38397;SDS011;24179;52.094;4.408;2023-12-20T15:17:42;130.13;;;121.17;;
38397;SDS011;24179;52.094;4.408;2023-12-20T15:20:43;135.10;;;126.00;;
38397;SDS011;24179;52.094;4.408;2023-12-20T15:23:45;134.27;;;125.35;;
38397;SDS011;24179;52.094;4.408;2023-12-20T15:26:56;132.93;;;123.95;;
38397;SDS011;24179;52.094;4.408;2023-12-20T15:29:56;130.97;;;122.33;;
38397;SDS011;24179;52.094;4.408;2023-12-20T15:32:57;130.50;;;121.90;;
38397;SDS011;24179;52.094;4.408;2023-12-20T15:35:57;132.50;;;123.27;;
38397;SDS011;24179;52.094;4.408;2023-12-20T15:38:58;134.20;;;125.30;;
38397;SDS011;24179;52.094;4.408;2023-12-20T15:41:59;136.17;;;126.50;;
38397;SDS011;24179;52.094;4.408;2023-12-20T15:44:59;129.87;;;121.43;;
38397;SDS011;24179;52.094;4.408;2023-12-20T15:48:00;134.03;;;125.37;;
38397;SDS011;24179;52.094;4.408;2023-12-20T15:51:04;134.20;;;125.47;;
38397;SDS011;24179;52.094;4.408;2023-12-20T15:54:05;137.35;;;128.20;;
38397;SDS011;24179;52.094;4.408;2023-12-20T15:57:08;128.82;;;120.22;;
38397;SDS011;24179;52.094;4.408;2023-12-20T16:00:10;134.35;;;125.75;;
38397;SDS011;24179;52.094;4.408;2023-12-20T16:03:10;136.00;;;127.33;;
38397;SDS011;24179;52.094;4.408;2023-12-20T16:06:11;133.07;;;124.37;;
38397;SDS011;24179;52.094;4.408;2023-12-20T16:09:12;135.82;;;126.53;;
38397;SDS011;24179;52.094;4.408;2023-12-20T16:12:13;134.60;;;126.10;;
38397;SDS011;24179;52.094;4.408;2023-12-20T16:15:13;132.23;;;123.67;;
38397;SDS011;24179;52.094;4.408;2023-12-20T16:18:14;136.93;;;127.70;;
38397;SDS011;24179;52.094;4.408;2023-12-20T16:21:14;135.87;;;126.70;;
38397;SDS011;24179;52.094;4.408;2023-12-20T16:24:15;131.07;;;122.53;;
38397;SDS011;24179;52.094;4.408;2023-12-20T16:27:15;133.77;;;125.27;;
38397;SDS011;24179;52.094;4.408;2023-12-20T16:30:16;133.67;;;125.07;;
38397;SDS011;24179;52.094;4.408;2023-12-20T16:33:17;134.87;;;125.50;;
38397;SDS011;24179;52.094;4.408;2023-12-20T16:36:17;137.83;;;128.93;;
38397;SDS011;24179;52.094;4.408;2023-12-20T16:39:18;137.83;;;128.70;;
38397;SDS011;24179;52.094;4.408;2023-12-20T16:42:20;137.38;;;128.82;;
38397;SDS011;24179;52.094;4.408;2023-12-20T16:45:21;139.73;;;130.30;;
38397;SDS011;24179;52.094;4.408;2023-12-20T16:48:22;131.45;;;122.90;;
38397;SDS011;24179;52.094;4.408;2023-12-20T16:51:23;138.13;;;129.23;;
38397;SDS011;24179;52.094;4.408;2023-12-20T16:54:24;140.03;;;131.23;;
38397;SDS011;24179;52.094;4.408;2023-12-20T16:57:24;134.30;;;126.17;;
38397;SDS011;24179;52.094;4.408;2023-12-20T17:00:25;139.57;;;130.40;;
38397;SDS011;24179;52.094;4.408;2023-12-20T17:03:26;134.63;;;125.93;;
38397;SDS011;24179;52.094;4.408;2023-12-20T17:06:28;136.93;;;128.17;;
38397;SDS011;24179;52.094;4.408;2023-12-20T17:09:29;140.05;;;131.07;;
38397;SDS011;24179;52.094;4.408;2023-12-20T17:12:29;141.13;;;132.27;;
38397;SDS011;24179;52.094;4.408;2023-12-20T17:15:30;137.40;;;128.73;;